Weather History for KONA - September, 2013

Change the Weather History Date:

Monday, September 30, 2013

  Actual Average Record
Temperature  
Mean Temperature 64 °F -  
Max Temperature 73 °F 67 °F 87 °F (1971)
Min Temperature 55 °F 45 °F 32 °F (2003)
Degree Days  
Heating Degree Days 1    
Growing Degree Days 14 (Base 50)    
Moisture  
Dew Point 47 °F    
Average Humidity 54    
Maximum Humidity 67    
Minimum Humidity 36    
Precipitation  
Precipitation 0.00 in - - ()
Sea Level Pressure  
Sea Level Pressure 29.80 in    
Wind  
Wind Speed 6 mph (South)    
Max Wind Speed 16 mph    
Max Gust Speed 28 mph    
Visibility 10 miles    
Events      
Averages and records for this station are not official NWS values.
T = Trace of Precipitation, MM = Missing Value Source: NWS Daily Summary

Daily Weather History Graph

Daily Weather History Graph

Search for Another Location

Airport or City:

Trip Planner

Search our weather history database for the weather conditions in past years. The results will help you decide how hot, cold, wet, or windy it might be!

Date:

Astronomy

Sep. 30, 2013 Rise Set
Actual Time 7:03 AM CDT 6:48 PM CDT
Civil Twilight 6:34 AM CDT 7:17 PM CDT
Nautical Twilight 6:01 AM CDT 7:51 PM CDT
Astronomical Twilight 5:27 AM CDT 8:25 PM CDT
Moon 2:33 AM CDT (9/30) 4:26 PM CDT (9/30)
Length of Visible Light 12h 42m
Length of Day
11h 45m
Waning Crescent, 19% of the Moon is Illuminated
Sep 30
Waning Crescent
Oct 4
New
Oct 11
First Quarter
Oct 18
Full
Oct 26
Last Quarter

Hourly Weather History & Observations

Time (CDT) Temp. Dew Point Humidity Pressure Visibility Wind Dir Wind Speed Gust Speed Precip Events Conditions
12:16 AM 60.8 °F 44.6 °F 55% 29.91 in 10.0 mi SSW 6.9 mph - N/A   Clear
12:36 AM 60.8 °F 44.6 °F 55% 29.90 in 10.0 mi SSW 6.9 mph - N/A   Clear
12:56 AM 59.0 °F 44.6 °F 59% 29.90 in 10.0 mi SW 4.6 mph - N/A   Clear
1:16 AM 59.0 °F 44.6 °F 59% 29.90 in 10.0 mi Calm Calm - N/A   Clear
1:36 AM 59.0 °F 44.6 °F 59% 29.89 in 10.0 mi South 4.6 mph - N/A   Clear
1:56 AM 59.0 °F 44.6 °F 59% 29.89 in 10.0 mi SSW 3.5 mph - N/A   Clear
2:16 AM 59.0 °F 44.6 °F 59% 29.89 in 10.0 mi South 4.6 mph - N/A   Clear
2:36 AM 59.0 °F 44.6 °F 59% 29.89 in 10.0 mi SSE 3.5 mph - N/A   Clear
2:57 AM 55.4 °F 44.6 °F 67% 29.89 in 10.0 mi SE 3.5 mph - N/A   Clear
3:16 AM 55.4 °F 44.6 °F 67% 29.89 in 10.0 mi SE 4.6 mph - N/A   Clear
3:36 AM 55.4 °F 44.6 °F 67% 29.88 in 10.0 mi SSE 5.8 mph - N/A   Clear
3:57 AM 55.4 °F 44.6 °F 67% 29.89 in 10.0 mi Calm Calm - N/A   Clear
4:16 AM 55.4 °F 44.6 °F 67% 29.88 in 10.0 mi SSE 3.5 mph - N/A   Clear
4:36 AM 55.4 °F 44.6 °F 67% 29.87 in 10.0 mi SE 5.8 mph - N/A   Clear
4:57 AM 55.4 °F 44.6 °F 67% 29.87 in 10.0 mi SE 5.8 mph - N/A   Clear
5:16 AM 55.4 °F 44.6 °F 67% 29.86 in 10.0 mi SSE 9.2 mph - N/A   Clear
5:36 AM 55.4 °F 44.6 °F 67% 29.86 in 10.0 mi SSE 4.6 mph - N/A   Clear
5:56 AM 55.4 °F 44.6 °F 67% 29.86 in 10.0 mi SSE 5.8 mph - N/A   Clear
6:16 AM 55.4 °F 44.6 °F 67% 29.86 in 10.0 mi SSE 5.8 mph - N/A   Clear
6:36 AM 55.4 °F 44.6 °F 67% 29.86 in 10.0 mi SSE 5.8 mph - N/A   Clear
6:56 AM 55.4 °F 44.6 °F 67% 29.86 in 10.0 mi SSE 6.9 mph - N/A   Clear
7:16 AM 55.4 °F 44.6 °F 67% 29.85 in 10.0 mi SE 6.9 mph - N/A   Clear
7:36 AM 55.4 °F 44.6 °F 67% 29.86 in 10.0 mi SSE 6.9 mph - N/A   Clear
7:56 AM 55.4 °F 44.6 °F 67% 29.85 in 10.0 mi SSE 5.8 mph - N/A   Clear
8:16 AM 59.0 °F 46.4 °F 63% 29.84 in 10.0 mi SSE 5.8 mph - N/A   Clear
8:36 AM 59.0 °F 46.4 °F 63% 29.84 in 10.0 mi SSE 6.9 mph - N/A   Clear
8:56 AM 60.8 °F 46.4 °F 59% 29.83 in 10.0 mi South 6.9 mph - N/A   Clear
9:16 AM 60.8 °F 46.4 °F 59% 29.83 in 10.0 mi South 8.1 mph - N/A   Clear
9:36 AM 60.8 °F 48.2 °F 63% 29.83 in 10.0 mi South 5.8 mph - N/A   Clear
9:56 AM 62.6 °F 50.0 °F 63% 29.83 in 10.0 mi South 8.1 mph - N/A   Clear
10:16 AM 62.6 °F 48.2 °F 59% 29.82 in 10.0 mi South 9.2 mph 23.0 mph N/A   Clear
10:36 AM 66.2 °F 50.0 °F 56% 29.82 in 10.0 mi South 6.9 mph - N/A   Clear
10:56 AM 68.0 °F 51.8 °F 56% 29.82 in 10.0 mi South 6.9 mph 17.3 mph N/A   Clear
11:16 AM 69.8 °F 51.8 °F 53% 29.82 in 10.0 mi South 5.8 mph 17.3 mph N/A   Clear
11:36 AM 69.8 °F 50.0 °F 49% 29.81 in 10.0 mi SSW 16.1 mph 24.2 mph N/A   Clear
11:56 AM 69.8 °F 50.0 °F 49% 29.81 in 10.0 mi SSW 12.7 mph 21.9 mph N/A   Clear
12:16 PM 69.8 °F 48.2 °F 46% 29.80 in 10.0 mi South 12.7 mph 21.9 mph N/A   Clear
12:36 PM 69.8 °F 48.2 °F 46% 29.79 in 10.0 mi South 8.1 mph 24.2 mph N/A   Clear
12:56 PM 71.6 °F 50.0 °F 46% 29.79 in 10.0 mi South 6.9 mph 25.3 mph N/A   Clear
1:16 PM 73.4 °F 48.2 °F 41% 29.78 in 10.0 mi SSW 11.5 mph 24.2 mph N/A   Clear
1:36 PM 73.4 °F 48.2 °F 41% 29.77 in 10.0 mi SSE 8.1 mph 19.6 mph N/A   Clear
1:56 PM 73.4 °F 46.4 °F 38% 29.76 in 10.0 mi SSW 8.1 mph 27.6 mph N/A   Clear
2:16 PM 73.4 °F 46.4 °F 38% 29.75 in 10.0 mi SSW 13.8 mph 23.0 mph N/A   Clear
2:36 PM 73.4 °F 44.6 °F 36% 29.75 in 10.0 mi SSW 8.1 mph 20.7 mph N/A   Clear
2:56 PM 73.4 °F 44.6 °F 36% 29.74 in 10.0 mi South 6.9 mph 19.6 mph N/A   Clear
3:16 PM 73.4 °F 44.6 °F 36% 29.74 in 10.0 mi South 8.1 mph 16.1 mph N/A   Clear
3:36 PM 73.4 °F 44.6 °F 36% 29.73 in 10.0 mi South 10.4 mph 16.1 mph N/A   Clear
3:56 PM 73.4 °F 44.6 °F 36% 29.72 in 10.0 mi South 6.9 mph 19.6 mph N/A   Clear
4:16 PM 73.4 °F 44.6 °F 36% 29.72 in 10.0 mi South 4.6 mph 24.2 mph N/A   Clear
4:36 PM 73.4 °F 44.6 °F 36% 29.72 in 10.0 mi SSW 10.4 mph 19.6 mph N/A   Clear
4:57 PM 73.4 °F 46.4 °F 38% 29.72 in 10.0 mi SSE 5.8 mph - N/A   Clear
5:16 PM 73.4 °F 46.4 °F 38% 29.71 in 10.0 mi South 8.1 mph - N/A   Clear
5:36 PM 73.4 °F 46.4 °F 38% 29.71 in 10.0 mi South 8.1 mph 18.4 mph N/A   Clear
5:56 PM 73.4 °F 46.4 °F 38% 29.71 in 10.0 mi South 5.8 mph - N/A   Clear
6:16 PM 73.4 °F 48.2 °F 41% 29.72 in 10.0 mi SSE 3.5 mph - N/A   Clear
6:37 PM 69.8 °F 46.4 °F 43% 29.72 in 10.0 mi SSE 3.5 mph - N/A   Clear
6:56 PM 69.8 °F 46.4 °F 43% 29.72 in 10.0 mi SSE 3.5 mph - N/A   Clear
7:16 PM 62.6 °F 48.2 °F 59% 29.72 in 10.0 mi SE 4.6 mph - N/A   Clear
7:37 PM 64.4 °F 48.2 °F 56% 29.73 in 10.0 mi SSE 3.5 mph - N/A   Clear
7:56 PM 62.6 °F 46.4 °F 55% 29.73 in 10.0 mi SSE 3.5 mph - N/A   Clear
8:16 PM 62.6 °F 48.2 °F 59% 29.73 in 10.0 mi SE 5.8 mph - N/A   Clear
8:36 PM 60.8 °F 48.2 °F 63% 29.73 in 10.0 mi SSE 4.6 mph - N/A   Clear
8:56 PM 66.2 °F 50.0 °F 56% 29.73 in 10.0 mi Calm Calm - N/A   Clear
9:16 PM 66.2 °F 48.2 °F 52% 29.73 in 10.0 mi South 5.8 mph - N/A   Clear
9:36 PM 66.2 °F 48.2 °F 52% 29.73 in 10.0 mi South 4.6 mph - N/A   Clear
9:56 PM 66.2 °F 48.2 °F 52% 29.73 in 10.0 mi South 4.6 mph - N/A   Clear
10:16 PM 68.0 °F 50.0 °F 52% 29.74 in 10.0 mi SSW 5.8 mph - N/A   Clear
10:36 PM 68.0 °F 50.0 °F 52% 29.74 in 10.0 mi SSW 6.9 mph - N/A   Clear
10:56 PM 68.0 °F 50.0 °F 52% 29.73 in 10.0 mi SSW 6.9 mph - N/A   Clear
11:16 PM 66.2 °F 50.0 °F 56% 29.73 in 10.0 mi SSW 9.2 mph - N/A   Clear
11:36 PM 68.0 °F 50.0 °F 52% 29.73 in 10.0 mi SW 6.9 mph - N/A   Clear
11:56 PM 68.0 °F 51.8 °F 56% 29.73 in 10.0 mi SSW 4.6 mph 16.1 mph N/A   Clear